Time;durP1;ratioP1;P1;durP2;ratioP2;P2;SDS_P1;SDS_P2;PMS_P1;PMS_P2;Temp;Humidity;BMP_temperature;BMP_pressure;BME280_temperature;BME280_humidity;BME280_pressure;Samples;Min_cycle;Max_cycle;Signal;HPM_P1;HPM_P2
2021/04/23 00:01:54;;;;;;;1.98;1.25;;;4.90;99.90;;;;;;1956382;73;21103;-78
2021/04/23 00:04:20;;;;;;;3.22;1.52;;;4.90;99.90;;;;;;1956268;73;21093;-78
2021/04/23 00:06:46;;;;;;;2.40;1.50;;;4.90;99.90;;;;;;1956261;73;21037;-79
2021/04/23 00:09:13;;;;;;;3.27;1.87;;;4.80;99.90;;;;;;1956272;73;21118;-79
2021/04/23 00:11:39;;;;;;;2.02;1.57;;;4.70;99.90;;;;;;1956359;73;21158;-78
2021/04/23 00:14:05;;;;;;;2.87;1.30;;;4.60;99.90;;;;;;1956375;73;21464;-79
2021/04/23 00:16:31;;;;;;;10.82;1.20;;;4.60;99.90;;;;;;1956271;73;21583;-78
2021/04/23 00:18:57;;;;;;;1.42;1.30;;;4.50;99.90;;;;;;1956230;73;21602;-78
2021/04/23 00:21:23;;;;;;;15.68;1.47;;;4.40;99.90;;;;;;1956265;73;21084;-78
2021/04/23 00:23:49;;;;;;;3.52;1.40;;;4.50;99.90;;;;;;1956243;73;21001;-78
2021/04/23 00:26:15;;;;;;;7.97;1.17;;;4.50;99.90;;;;;;1956191;73;21060;-78
2021/04/23 00:28:41;;;;;;;4.65;1.40;;;4.50;99.90;;;;;;1956240;73;21092;-78
2021/04/23 00:31:08;;;;;;;3.47;1.20;;;4.40;99.90;;;;;;1956263;73;21053;-79
2021/04/23 00:33:34;;;;;;;5.83;1.52;;;4.30;99.90;;;;;;1956232;73;21564;-79
2021/04/23 00:36:00;;;;;;;4.15;1.17;;;4.40;99.90;;;;;;1956335;73;21468;-78
2021/04/23 00:38:27;;;;;;;1.62;1.25;;;4.30;99.90;;;;;;1956165;73;21089;-78
2021/04/23 00:40:55;;;;;;;2.02;1.32;;;4.30;99.90;;;;;;1956105;73;21065;-78
2021/04/23 00:43:21;;;;;;;6.10;1.65;;;4.20;99.90;;;;;;1956292;73;21534;-77
2021/04/23 00:45:49;;;;;;;5.58;1.37;;;4.20;99.90;;;;;;1956145;73;21524;-78
2021/04/23 00:48:14;;;;;;;7.12;1.72;;;4.10;99.90;;;;;;1956223;73;21084;-78
2021/04/23 00:50:41;;;;;;;9.18;1.80;;;4.00;99.90;;;;;;1956217;73;21085;-77
2021/04/23 00:53:07;;;;;;;4.17;1.52;;;4.00;99.90;;;;;;1956216;73;21097;-78
2021/04/23 00:55:33;;;;;;;2.90;1.27;;;4.00;99.90;;;;;;1956353;73;21053;-79
2021/04/23 00:57:59;;;;;;;5.83;1.40;;;4.00;99.90;;;;;;1956206;73;21158;-78
2021/04/23 01:00:25;;;;;;;2.40;1.55;;;3.90;99.90;;;;;;1956243;73;21179;-78
2021/04/23 01:02:51;;;;;;;3.05;1.12;;;3.80;99.90;;;;;;1956250;73;21119;-78
2021/04/23 01:05:17;;;;;;;4.37;1.17;;;3.90;99.90;;;;;;1956325;73;21060;-78
2021/04/23 01:07:45;;;;;;;3.70;1.52;;;3.90;99.90;;;;;;1956215;73;21166;-78
2021/04/23 01:10:11;;;;;;;2.67;1.40;;;3.80;99.90;;;;;;1956352;73;21029;-78
2021/04/23 01:12:37;;;;;;;5.20;1.37;;;3.80;99.90;;;;;;1956211;73;21086;-78
2021/04/23 01:15:06;;;;;;;2.47;1.35;;;3.80;99.90;;;;;;1956340;73;21056;-77
2021/04/23 01:17:32;;;;;;;7.87;1.37;;;3.80;99.90;;;;;;1956325;73;21109;-78
2021/04/23 01:19:58;;;;;;;2.35;1.27;;;3.80;99.90;;;;;;1956320;73;21060;-78
2021/04/23 01:22:24;;;;;;;5.40;1.57;;;3.80;99.90;;;;;;1956078;73;21144;-77
2021/04/23 01:24:50;;;;;;;4.80;2.00;;;3.80;99.90;;;;;;1956356;73;21073;-79
2021/04/23 01:27:17;;;;;;;1.80;1.27;;;3.60;99.90;;;;;;1956172;73;21473;-77
2021/04/23 01:29:43;;;;;;;5.55;1.57;;;3.60;99.90;;;;;;1956162;73;21544;-79
2021/04/23 01:32:09;;;;;;;6.17;1.70;;;3.60;99.90;;;;;;1956204;73;21567;-78
2021/04/23 01:34:36;;;;;;;3.10;1.27;;;3.60;99.90;;;;;;1956236;73;21166;-78
2021/04/23 01:37:02;;;;;;;4.33;1.40;;;3.70;99.90;;;;;;1953294;73;21092;-77
2021/04/23 01:39:28;;;;;;;3.35;1.55;;;3.70;99.90;;;;;;1955454;73;21116;-77
2021/04/23 01:41:55;;;;;;;12.25;1.55;;;3.70;99.90;;;;;;1956161;73;21636;-78
2021/04/23 01:44:21;;;;;;;3.95;1.47;;;3.70;99.90;;;;;;1956308;73;21503;-79
2021/04/23 01:46:47;;;;;;;5.83;1.45;;;3.70;99.90;;;;;;1956163;73;21528;-78
2021/04/23 01:49:13;;;;;;;4.20;1.60;;;3.60;99.90;;;;;;1955542;73;21100;-78
2021/04/23 01:51:39;;;;;;;1.80;1.10;;;3.50;99.90;;;;;;1956200;73;21084;-77
2021/04/23 01:54:05;;;;;;;2.40;1.50;;;3.40;99.90;;;;;;1938547;72;21185;-79
2021/04/23 01:56:31;;;;;;;4.83;1.60;;;3.30;99.90;;;;;;1955599;73;21199;-79
2021/04/23 01:58:57;;;;;;;3.30;1.82;;;3.30;99.90;;;;;;1956267;73;21053;-78
2021/04/23 02:01:23;;;;;;;7.55;1.45;;;3.30;99.90;;;;;;1956300;73;21060;-78
2021/04/23 02:03:50;;;;;;;4.87;2.08;;;3.20;99.90;;;;;;1956184;73;21057;-78
2021/04/23 02:06:16;;;;;;;12.23;2.30;;;3.30;99.90;;;;;;1956253;73;21125;-78
2021/04/23 02:08:42;;;;;;;4.05;1.82;;;3.30;99.90;;;;;;1956069;73;21155;-78
2021/04/23 02:11:08;;;;;;;3.87;2.00;;;3.30;99.90;;;;;;1956306;73;21118;-78
2021/04/23 02:13:34;;;;;;;5.10;1.70;;;3.20;99.90;;;;;;1956210;73;21202;-78
2021/04/23 02:16:01;;;;;;;5.80;2.65;;;3.10;99.90;;;;;;1956702;73;21064;-78
2021/04/23 02:18:27;;;;;;;4.83;2.40;;;3.10;99.90;;;;;;1956485;73;21129;-78
2021/04/23 02:20:53;;;;;;;5.37;2.45;;;3.10;99.90;;;;;;1956540;73;21028;-78
2021/04/23 02:23:19;;;;;;;6.05;2.47;;;3.10;99.90;;;;;;1956648;73;21122;-79
2021/04/23 02:25:45;;;;;;;2.50;1.55;;;3.00;99.90;;;;;;1956477;73;21515;-78
2021/04/23 02:28:11;;;;;;;9.03;2.25;;;3.00;99.90;;;;;;1956628;73;21452;-79
2021/04/23 02:30:37;;;;;;;4.72;2.22;;;2.90;99.90;;;;;;1956405;73;21056;-78
2021/04/23 02:33:04;;;;;;;5.03;2.50;;;2.80;99.90;;;;;;1956513;73;21033;-79
2021/04/23 02:35:30;;;;;;;5.67;2.47;;;2.80;99.90;;;;;;1956405;73;21028;-78
2021/04/23 02:37:56;;;;;;;5.33;2.77;;;2.70;99.90;;;;;;1956378;73;21117;-78
2021/04/23 02:40:24;;;;;;;2.85;1.57;;;2.70;99.90;;;;;;1956436;73;21126;-78
2021/04/23 02:42:50;;;;;;;4.65;2.12;;;2.70;99.90;;;;;;1956424;73;21158;-78
2021/04/23 02:45:16;;;;;;;5.78;2.12;;;2.60;99.90;;;;;;1956425;73;21069;-78
2021/04/23 02:47:42;;;;;;;4.50;2.15;;;2.70;99.90;;;;;;1956545;73;21141;-78
2021/04/23 02:50:08;;;;;;;6.00;2.05;;;2.60;99.90;;;;;;1956669;73;21545;-78
2021/04/23 02:52:34;;;;;;;4.65;1.95;;;2.50;99.90;;;;;;1956495;73;21543;-77
2021/04/23 02:55:00;;;;;;;17.17;2.60;;;2.60;99.90;;;;;;1956702;73;21453;-79
2021/04/23 02:57:27;;;;;;;2.02;1.47;;;2.70;99.90;;;;;;1956344;73;21060;-77
2021/04/23 02:59:53;;;;;;;2.20;1.67;;;2.70;99.90;;;;;;1956561;73;21117;-77
2021/04/23 03:02:19;;;;;;;4.80;2.33;;;2.60;99.90;;;;;;1956411;73;21146;-79
2021/04/23 03:04:45;;;;;;;5.05;2.35;;;2.60;99.90;;;;;;1956371;73;21181;-79
2021/04/23 03:07:11;;;;;;;2.80;1.85;;;2.70;99.90;;;;;;1956391;73;21060;-79
2021/04/23 03:09:37;;;;;;;18.30;1.98;;;2.60;99.90;;;;;;1956565;73;21060;-78
2021/04/23 03:12:03;;;;;;;5.72;2.05;;;2.60;99.90;;;;;;1956440;73;21513;-78
2021/04/23 03:14:29;;;;;;;4.53;2.17;;;2.60;99.90;;;;;;1956427;73;21546;-79
2021/04/23 03:16:56;;;;;;;2.25;1.85;;;2.60;99.90;;;;;;1956556;73;21437;-78
2021/04/23 03:19:22;;;;;;;2.08;1.52;;;2.50;99.90;;;;;;1956310;73;21052;-77
2021/04/23 03:21:48;;;;;;;15.15;2.05;;;2.50;99.90;;;;;;1956664;73;21059;-77
2021/04/23 03:24:14;;;;;;;3.25;1.95;;;2.30;99.90;;;;;;1956612;73;21059;-78
2021/04/23 03:26:40;;;;;;;3.33;1.80;;;2.30;99.90;;;;;;1956075;73;21069;-77
2021/04/23 03:29:06;;;;;;;3.90;1.67;;;2.20;99.90;;;;;;1956162;73;21115;-77
2021/04/23 03:31:32;;;;;;;4.65;2.42;;;2.20;99.90;;;;;;1956244;73;21056;-78
2021/04/23 03:33:58;;;;;;;2.70;1.72;;;2.30;99.90;;;;;;1956183;73;21138;-78
2021/04/23 03:36:25;;;;;;;4.03;2.33;;;2.30;99.90;;;;;;1956262;73;21531;-78
2021/04/23 03:38:51;;;;;;;5.12;2.02;;;2.30;99.90;;;;;;1956340;73;21509;-78
2021/04/23 03:41:17;;;;;;;8.83;2.17;;;2.30;99.90;;;;;;1956235;73;21455;-78
2021/04/23 03:43:43;;;;;;;2.95;1.70;;;2.30;99.90;;;;;;1956303;73;21081;-77
2021/04/23 03:46:10;;;;;;;4.58;2.30;;;2.30;99.90;;;;;;1956315;73;21067;-77
2021/04/23 03:48:36;;;;;;;11.70;2.37;;;2.30;99.90;;;;;;1956402;73;21470;-81
2021/04/23 03:51:03;;;;;;;9.53;1.92;;;2.30;99.90;;;;;;1956280;73;21452;-78
2021/04/23 03:53:29;;;;;;;7.37;2.58;;;2.30;99.90;;;;;;1956336;73;21561;-77
2021/04/23 03:55:55;;;;;;;5.10;2.33;;;2.30;99.90;;;;;;1956151;73;21152;-77
2021/04/23 03:58:21;;;;;;;7.15;3.50;;;2.20;99.90;;;;;;1956336;73;21029;-78
2021/04/23 04:00:47;;;;;;;7.70;2.90;;;2.10;99.90;;;;;;1956247;73;21130;-78
2021/04/23 04:03:13;;;;;;;7.03;2.95;;;2.10;99.90;;;;;;1956017;73;21476;-78
2021/04/23 04:05:39;;;;;;;2.92;2.47;;;2.00;99.90;;;;;;1955458;73;21503;-78
2021/04/23 04:08:06;;;;;;;5.35;2.60;;;2.00;99.90;;;;;;1956224;73;21085;-79
2021/04/23 04:10:32;;;;;;;10.50;3.00;;;2.00;99.90;;;;;;1956213;73;21085;-77
2021/04/23 04:12:58;;;;;;;3.17;2.17;;;2.10;99.90;;;;;;1956223;73;21097;-79
2021/04/23 04:15:24;;;;;;;4.08;1.95;;;2.10;99.90;;;;;;1956216;73;21091;-78
2021/04/23 04:17:50;;;;;;;8.30;2.52;;;2.00;99.90;;;;;;1955484;73;21080;-77
2021/04/23 04:20:16;;;;;;;9.28;2.60;;;2.00;99.90;;;;;;1956105;73;21061;-78
2021/04/23 04:22:43;;;;;;;5.53;1.98;;;2.00;99.90;;;;;;1956229;73;21159;-79
2021/04/23 04:25:10;;;;;;;3.95;2.33;;;1.90;99.90;;;;;;1929904;73;21060;-78
2021/04/23 04:27:36;;;;;;;4.95;2.12;;;1.90;99.90;;;;;;1956212;73;21064;-79
2021/04/23 04:30:02;;;;;;;3.98;2.12;;;2.00;99.90;;;;;;1955718;73;21087;-78
2021/04/23 04:32:28;;;;;;;4.65;2.27;;;1.90;99.90;;;;;;1956112;73;21109;-77
2021/04/23 04:34:54;;;;;;;4.50;2.10;;;1.90;99.90;;;;;;1956275;73;21484;-78
2021/04/23 04:37:20;;;;;;;5.33;2.50;;;1.90;99.90;;;;;;1956200;73;21468;-76
2021/04/23 04:39:46;;;;;;;5.08;2.45;;;1.90;99.90;;;;;;1956229;73;21433;-77
2021/04/23 04:42:12;;;;;;;3.72;2.75;;;2.00;99.90;;;;;;1956183;73;21061;-76
2021/04/23 04:44:39;;;;;;;4.40;2.47;;;2.00;99.90;;;;;;1956541;73;21068;-74
2021/04/23 04:47:05;;;;;;;4.95;2.95;;;2.00;99.90;;;;;;1956031;73;21213;-74
2021/04/23 04:49:31;;;;;;;2.98;2.27;;;2.00;99.90;;;;;;1956286;73;21068;-74
2021/04/23 04:51:57;;;;;;;12.43;3.10;;;2.00;99.90;;;;;;1956144;73;21053;-76
2021/04/23 04:54:23;;;;;;;4.42;2.70;;;1.90;99.90;;;;;;1956266;73;21133;-76
2021/04/23 04:56:49;;;;;;;11.93;2.80;;;1.90;99.90;;;;;;1956274;73;21036;-75
2021/04/23 04:59:15;;;;;;;7.47;2.67;;;2.00;99.90;;;;;;1956238;73;21103;-76
2021/04/23 05:01:41;;;;;;;6.75;2.77;;;1.90;99.90;;;;;;1956023;73;21090;-76
2021/04/23 05:04:08;;;;;;;9.48;3.12;;;1.90;99.90;;;;;;1956304;73;21472;-76
2021/04/23 05:06:34;;;;;;;4.67;2.42;;;1.90;99.90;;;;;;1956016;73;21102;-76
2021/04/23 05:09:00;;;;;;;7.08;3.12;;;1.90;99.90;;;;;;1956309;73;21060;-76
2021/04/23 05:11:26;;;;;;;10.03;3.52;;;2.10;99.90;;;;;;1956079;73;21093;-76
2021/04/23 05:13:52;;;;;;;9.58;3.20;;;2.10;99.90;;;;;;1956478;73;21064;-75
2021/04/23 05:16:18;;;;;;;2.22;2.02;;;2.10;99.90;;;;;;1956260;73;21028;-77
2021/04/23 05:18:44;;;;;;;4.72;2.30;;;2.20;99.90;;;;;;1956266;73;21040;-76
2021/04/23 05:21:10;;;;;;;10.32;2.42;;;2.20;99.90;;;;;;1956289;73;21036;-73
2021/04/23 05:23:37;;;;;;;4.55;2.72;;;2.40;99.90;;;;;;1956344;73;21064;-76
2021/04/23 05:26:03;;;;;;;5.08;2.47;;;2.30;99.90;;;;;;1956034;73;21170;-76
2021/04/23 05:28:29;;;;;;;5.28;2.17;;;2.30;99.90;;;;;;1956281;73;21063;-76
2021/04/23 05:30:55;;;;;;;4.60;2.65;;;2.40;99.90;;;;;;1956030;73;21132;-76
2021/04/23 05:33:22;;;;;;;4.78;2.25;;;2.50;99.90;;;;;;1956247;73;21052;-74
2021/04/23 05:35:52;;;;;;;3.95;2.52;;;2.50;99.90;;;;;;1956312;73;21072;-75
2021/04/23 05:38:16;;;;;;;5.97;2.85;;;2.60;99.90;;;;;;1954845;73;21116;-74
2021/04/23 05:40:43;;;;;;;5.87;2.58;;;2.70;99.90;;;;;;1956359;73;21129;-76
2021/04/23 05:43:09;;;;;;;9.60;2.95;;;2.70;99.90;;;;;;1956225;73;21075;-76
2021/04/23 05:45:35;;;;;;;4.95;2.50;;;2.80;99.90;;;;;;1956068;73;21120;-77
2021/04/23 05:48:02;;;;;;;4.40;2.62;;;2.80;99.90;;;;;;1956206;73;21056;-74
2021/04/23 05:50:28;;;;;;;21.95;2.60;;;2.90;99.90;;;;;;1956222;73;21068;-79
2021/04/23 05:52:54;;;;;;;10.32;2.67;;;2.90;99.90;;;;;;1956376;73;21145;-81
2021/04/23 05:55:20;;;;;;;4.47;2.80;;;3.10;99.90;;;;;;1956383;73;21064;-85
2021/04/23 05:57:46;;;;;;;9.08;2.58;;;3.30;99.90;;;;;;1956238;73;21064;-76
2021/04/23 06:00:12;;;;;;;8.18;2.77;;;3.40;99.90;;;;;;1956101;73;21077;-76
2021/04/23 06:02:38;;;;;;;5.30;2.40;;;3.40;99.90;;;;;;1956124;73;21134;-75
2021/04/23 06:05:05;;;;;;;2.98;2.27;;;3.40;99.90;;;;;;1956329;73;21072;-76
2021/04/23 06:07:31;;;;;;;9.20;2.62;;;3.60;99.90;;;;;;1956019;73;21081;-75
2021/04/23 06:09:57;;;;;;;5.70;2.75;;;3.50;99.90;;;;;;1929925;73;21056;-78
2021/04/23 06:12:23;;;;;;;3.00;2.08;;;3.70;99.90;;;;;;1956104;73;21174;-77
2021/04/23 06:14:49;;;;;;;5.97;2.65;;;3.80;99.90;;;;;;1956229;73;21060;-78
2021/04/23 06:17:15;;;;;;;10.50;2.27;;;3.80;99.90;;;;;;1956171;73;21111;-78
2021/04/23 06:19:41;;;;;;;7.92;2.70;;;4.00;99.90;;;;;;1954439;73;21125;-76
2021/04/23 06:22:08;;;;;;;8.43;2.92;;;4.20;99.90;;;;;;1955670;73;21167;-77
2021/04/23 06:24:34;;;;;;;8.33;2.85;;;4.50;99.90;;;;;;1955119;73;21068;-76
2021/04/23 06:27:00;;;;;;;3.80;2.30;;;4.50;99.90;;;;;;1955325;73;21052;-76
2021/04/23 06:29:28;;;;;;;4.40;2.35;;;4.70;99.90;;;;;;1956020;73;21097;-76
2021/04/23 06:31:54;;;;;;;4.53;2.65;;;4.90;99.90;;;;;;1965502;72;21108;-77
2021/04/23 06:34:20;;;;;;;2.60;2.12;;;5.10;99.90;;;;;;1955802;73;21082;-76
2021/04/23 06:36:46;;;;;;;6.28;2.72;;;5.20;99.90;;;;;;1952887;73;21030;-76
2021/04/23 06:39:12;;;;;;;8.80;3.12;;;5.30;99.90;;;;;;1940859;72;21143;-75
2021/04/23 06:41:39;;;;;;;7.00;1.98;;;5.50;99.90;;;;;;1947783;73;21068;-76
2021/04/23 06:44:05;;;;;;;10.23;3.15;;;5.90;99.90;;;;;;1956198;73;21076;-75
2021/04/23 06:46:31;;;;;;;6.58;2.37;;;5.70;99.90;;;;;;1955809;73;21037;-76
2021/04/23 06:48:57;;;;;;;4.83;2.55;;;5.80;99.90;;;;;;1956171;73;21072;-76
2021/04/23 06:51:23;;;;;;;7.03;3.67;;;6.10;99.90;;;;;;1955816;73;21153;-78
2021/04/23 06:53:49;;;;;;;8.03;3.15;;;6.40;99.90;;;;;;1956130;73;21512;-78
2021/04/23 06:56:15;;;;;;;11.03;2.67;;;6.60;99.90;;;;;;1955867;73;21100;-78
2021/04/23 06:58:43;;;;;;;4.97;2.50;;;6.80;99.90;;;;;;1955801;73;21131;-78
2021/04/23 07:01:09;;;;;;;4.35;2.20;;;7.00;99.90;;;;;;1956090;71;21508;-78
2021/04/23 07:03:35;;;;;;;8.05;3.27;;;6.90;99.90;;;;;;1956164;73;21072;-78
2021/04/23 07:06:02;;;;;;;4.20;2.58;;;6.90;99.90;;;;;;1956032;73;21009;-80
2021/04/23 07:08:30;;;;;;;8.23;2.98;;;7.20;99.90;;;;;;1956001;73;21065;-78
2021/04/23 07:10:55;;;;;;;6.60;3.10;;;7.60;99.90;;;;;;1956034;73;21198;-78
2021/04/23 07:13:22;;;;;;;4.55;2.85;;;7.40;99.90;;;;;;1956344;73;21056;-79
2021/04/23 07:15:48;;;;;;;6.35;2.87;;;7.50;99.90;;;;;;1956263;73;21173;-79
2021/04/23 07:18:14;;;;;;;8.73;3.27;;;7.70;99.90;;;;;;1956090;73;21092;-78
2021/04/23 07:20:40;;;;;;;8.50;2.83;;;7.80;99.90;;;;;;1956229;73;21080;-77
2021/04/23 07:23:06;;;;;;;7.08;3.85;;;8.00;99.90;;;;;;1956140;73;21502;-79
2021/04/23 07:25:33;;;;;;;10.32;3.33;;;8.30;99.90;;;;;;1956220;73;21479;-78
2021/04/23 07:27:59;;;;;;;7.40;3.00;;;8.60;99.90;;;;;;1956096;73;21518;-78
2021/04/23 07:30:27;;;;;;;9.65;3.58;;;8.60;99.90;;;;;;1956138;73;21064;-78
2021/04/23 07:32:53;;;;;;;7.15;2.83;;;8.80;99.90;;;;;;1956054;71;21089;-75
2021/04/23 07:35:19;;;;;;;7.78;3.10;;;8.50;99.90;;;;;;1956147;73;21133;-77
2021/04/23 07:37:45;;;;;;;12.43;2.83;;;8.80;99.90;;;;;;1956140;73;21064;-77
2021/04/23 07:40:11;;;;;;;7.37;2.58;;;8.70;99.90;;;;;;1956202;73;21064;-77
2021/04/23 07:42:37;;;;;;;16.70;2.92;;;9.00;99.90;;;;;;1956202;73;21101;-77
2021/04/23 07:45:03;;;;;;;9.30;2.60;;;9.90;99.90;;;;;;1956260;73;21068;-78
2021/04/23 07:47:30;;;;;;;5.22;2.80;;;10.40;99.90;;;;;;1956275;73;21071;-78
2021/04/23 07:49:56;;;;;;;6.17;2.40;;;11.10;99.90;;;;;;1956276;73;21037;-78
2021/04/23 07:52:22;;;;;;;11.80;2.65;;;11.90;99.90;;;;;;1956175;73;21036;-79
2021/04/23 07:54:48;;;;;;;12.35;2.58;;;12.60;99.90;;;;;;1956295;73;21064;-79
2021/04/23 07:57:14;;;;;;;9.55;2.52;;;12.90;99.90;;;;;;1956232;73;21064;-78
2021/04/23 07:59:40;;;;;;;9.18;2.62;;;12.30;99.90;;;;;;1956301;73;21059;-78
2021/04/23 08:02:06;;;;;;;10.08;2.92;;;12.10;99.90;;;;;;1956273;73;21214;-78
2021/04/23 08:04:34;;;;;;;7.20;2.47;;;12.20;99.90;;;;;;1956250;73;21516;-77
2021/04/23 08:07:00;;;;;;;5.83;2.55;;;12.00;99.90;;;;;;1956308;73;21145;-79
2021/04/23 08:09:27;;;;;;;10.30;2.47;;;12.20;99.90;;;;;;1956235;73;21186;-79
2021/04/23 08:11:53;;;;;;;8.33;2.58;;;12.70;99.90;;;;;;1956256;73;21089;-78
2021/04/23 08:14:19;;;;;;;10.50;2.60;;;12.90;99.90;;;;;;1956239;73;21068;-78
2021/04/23 08:16:45;;;;;;;5.37;2.33;;;13.60;99.90;;;;;;1956245;73;21166;-78
2021/04/23 08:19:11;;;;;;;6.08;2.37;;;13.60;98.80;;;;;;1956209;73;21096;-79
2021/04/23 08:21:37;;;;;;;10.35;2.25;;;13.70;98.40;;;;;;1956052;73;21085;-78
2021/04/23 08:24:04;;;;;;;7.00;2.45;;;13.50;97.70;;;;;;1956367;73;21145;-77
2021/04/23 08:26:30;;;;;;;6.28;2.50;;;12.80;99.00;;;;;;1956004;73;21048;-78
2021/04/23 08:28:56;;;;;;;12.55;2.55;;;12.80;99.90;;;;;;1956227;73;21107;-78
2021/04/23 08:31:23;;;;;;;4.83;2.20;;;13.10;99.20;;;;;;1956067;73;21080;-78
2021/04/23 08:33:49;;;;;;;10.88;2.20;;;13.80;99.60;;;;;;1956255;73;21045;-78
2021/04/23 08:36:15;;;;;;;11.35;2.52;;;14.50;96.20;;;;;;1956357;73;21056;-77
2021/04/23 08:38:42;;;;;;;9.90;2.58;;;14.80;94.90;;;;;;1956324;73;21060;-80
2021/04/23 08:41:08;;;;;;;8.45;2.58;;;14.00;94.40;;;;;;1956392;73;21121;-78
2021/04/23 08:43:36;;;;;;;8.28;2.20;;;13.30;96.30;;;;;;1956309;73;21425;-78
2021/04/23 08:46:02;;;;;;;11.65;2.15;;;13.70;95.80;;;;;;1954805;73;21076;-78
2021/04/23 08:48:28;;;;;;;4.72;1.92;;;13.80;94.90;;;;;;1955588;73;21138;-78
2021/04/23 08:50:54;;;;;;;6.75;2.35;;;14.20;94.00;;;;;;1955786;72;21076;-78
2021/04/23 08:53:20;;;;;;;6.75;2.40;;;14.30;92.70;;;;;;1955764;73;21105;-79
2021/04/23 08:55:46;;;;;;;7.97;2.75;;;14.70;93.20;;;;;;1954956;73;21170;-78
2021/04/23 08:58:13;;;;;;;5.97;2.98;;;15.30;91.60;;;;;;1954638;73;21080;-78
2021/04/23 09:00:39;;;;;;;13.48;2.50;;;14.80;91.80;;;;;;1955268;73;21068;-78
2021/04/23 09:03:05;;;;;;;6.53;2.30;;;15.20;90.60;;;;;;1956181;73;21107;-78
2021/04/23 09:05:31;;;;;;;12.82;2.50;;;14.30;92.20;;;;;;1930106;73;21420;-78
2021/04/23 09:07:57;;;;;;;5.10;2.35;;;14.10;91.70;;;;;;1956109;73;21519;-78
2021/04/23 09:10:23;;;;;;;7.80;2.70;;;13.40;93.30;;;;;;1956018;73;21484;-81
2021/04/23 09:12:49;;;;;;;3.58;2.10;;;13.60;93.00;;;;;;1956271;73;21530;-79
2021/04/23 09:15:15;;;;;;;4.90;2.67;;;14.10;92.20;;;;;;1956134;73;21598;-79
2021/04/23 09:17:42;;;;;;;10.50;3.02;;;14.50;91.10;;;;;;1956252;73;21566;-80
2021/04/23 09:20:08;;;;;;;5.72;2.17;;;14.50;91.60;;;;;;1956222;73;21041;-80
2021/04/23 09:22:37;;;;;;;8.65;2.65;;;14.30;91.10;;;;;;1956167;73;21076;-81
2021/04/23 09:25:03;;;;;;;8.60;2.22;;;14.50;91.40;;;;;;1956133;73;21078;-80
2021/04/23 09:27:29;;;;;;;4.80;2.05;;;14.40;89.50;;;;;;1956216;73;21077;-79
2021/04/23 09:29:55;;;;;;;12.25;2.50;;;14.40;90.40;;;;;;1956226;73;21081;-80
2021/04/23 09:32:21;;;;;;;7.22;2.27;;;14.90;86.40;;;;;;1956142;73;21085;-77
2021/04/23 09:34:47;;;;;;;7.67;2.20;;;15.00;85.80;;;;;;1956262;73;21077;-82
2021/04/23 09:37:14;;;;;;;14.28;2.05;;;14.80;85.60;;;;;;1956187;73;21084;-80
2021/04/23 09:39:42;;;;;;;7.22;2.33;;;15.00;85.60;;;;;;1956170;73;21084;-79
2021/04/23 09:42:10;;;;;;;5.45;1.82;;;14.60;85.80;;;;;;1956031;73;21493;-81
2021/04/23 09:44:37;;;;;;;7.62;1.75;;;14.60;86.70;;;;;;1956113;73;21197;-81
2021/04/23 09:47:03;;;;;;;8.98;1.75;;;15.20;84.00;;;;;;1956116;73;21101;-82
2021/04/23 09:49:29;;;;;;;13.22;1.72;;;15.60;83.40;;;;;;1956154;73;21155;-78
2021/04/23 09:51:55;;;;;;;7.47;2.00;;;15.40;83.30;;;;;;1956117;73;21081;-79
2021/04/23 09:54:27;;;;;;;9.85;1.77;;;15.80;82.40;;;;;;1956236;73;21060;-79
2021/04/23 09:56:53;;;;;;;3.40;1.47;;;15.60;81.90;;;;;;1956057;73;21500;-79
2021/04/23 09:59:20;;;;;;;7.10;1.77;;;15.60;81.30;;;;;;1956028;73;21545;-82
2021/04/23 10:01:46;;;;;;;7.33;1.70;;;16.00;83.10;;;;;;1956435;73;21105;-85
2021/04/23 10:04:12;;;;;;;8.80;2.15;;;15.70;79.70;;;;;;1956747;73;21154;-85
2021/04/23 10:06:38;;;;;;;5.28;1.65;;;15.70;80.40;;;;;;1956401;73;21121;-85
2021/04/23 10:09:04;;;;;;;2.85;1.70;;;15.80;79.00;;;;;;1956311;73;21037;-84
2021/04/23 10:11:30;;;;;;;5.40;2.37;;;15.50;79.00;;;;;;1929941;73;21052;-83
2021/04/23 10:13:56;;;;;;;6.15;1.85;;;15.70;77.60;;;;;;1956198;73;21099;-84
2021/04/23 10:16:23;;;;;;;3.50;1.72;;;15.60;78.10;;;;;;1956214;73;21028;-86
2021/04/23 10:18:49;;;;;;;6.15;1.80;;;16.30;77.00;;;;;;1956200;73;21052;-76
2021/04/23 10:21:15;;;;;;;4.92;1.70;;;16.30;75.10;;;;;;1956065;73;21089;-78
2021/04/23 10:23:41;;;;;;;10.60;2.12;;;16.00;74.30;;;;;;1956173;73;21056;-78
2021/04/23 10:26:07;;;;;;;7.30;2.50;;;16.20;75.90;;;;;;1955933;73;21128;-80
2021/04/23 10:28:33;;;;;;;14.80;1.87;;;16.40;72.00;;;;;;1956189;73;21060;-72
2021/04/23 10:31:01;;;;;;;3.10;1.70;;;16.40;73.70;;;;;;1955941;73;21072;-80
2021/04/23 10:33:29;;;;;;;5.95;1.85;;;16.70;71.10;;;;;;1956066;73;21124;-80
2021/04/23 10:35:55;;;;;;;10.10;1.92;;;16.80;69.70;;;;;;1957721;71;21128;-81
2021/04/23 10:38:24;;;;;;;6.75;1.80;;;16.70;69.20;;;;;;1958006;73;21125;-80
2021/04/23 10:40:51;;;;;;;4.97;1.70;;;16.60;69.90;;;;;;1958176;73;21033;-79
2021/04/23 10:43:18;;;;;;;5.28;2.10;;;16.80;66.80;;;;;;1956425;73;21103;-78
2021/04/23 10:45:47;;;;;;;8.15;2.12;;;17.10;67.60;;;;;;1956335;73;21118;-80
2021/04/23 10:48:12;;;;;;;5.05;1.57;;;17.00;65.70;;;;;;1950686;72;21117;-80
2021/04/23 10:50:38;;;;;;;17.60;2.30;;;17.50;64.00;;;;;;1956191;73;21097;-80
2021/04/23 10:53:04;;;;;;;4.60;1.72;;;17.20;62.10;;;;;;1956336;73;21460;-79
2021/04/23 10:55:30;;;;;;;3.75;1.80;;;15.70;65.90;;;;;;1956188;73;21060;-79
2021/04/23 10:57:56;;;;;;;3.42;1.27;;;15.30;67.50;;;;;;1956269;73;21085;-81
2021/04/23 11:00:22;;;;;;;5.30;2.12;;;16.20;69.40;;;;;;1939119;73;21073;-80
2021/04/23 11:02:49;;;;;;;8.25;1.77;;;17.00;65.70;;;;;;1956326;73;21121;-80
2021/04/23 11:05:15;;;;;;;2.98;1.50;;;16.50;65.00;;;;;;1956202;73;21096;-79
2021/04/23 11:07:41;;;;;;;4.30;1.70;;;16.90;63.40;;;;;;1956136;73;21068;-78
2021/04/23 11:10:07;;;;;;;5.10;2.20;;;17.30;62.80;;;;;;1956216;73;21111;-77
2021/04/23 11:12:33;;;;;;;4.92;1.70;;;17.10;59.80;;;;;;1955404;73;21072;-79
2021/04/23 11:14:59;;;;;;;6.37;1.98;;;16.60;61.70;;;;;;1956106;73;21142;-78
2021/04/23 11:17:31;;;;;;;5.12;1.62;;;16.90;65.40;;;;;;1955475;73;21528;-82
2021/04/23 11:19:54;;;;;;;6.03;1.45;;;17.40;60.50;;;;;;1955427;72;21085;-81
2021/04/23 11:22:20;;;;;;;4.55;1.55;;;18.00;60.80;;;;;;1955985;73;21532;-78
2021/04/23 11:24:46;;;;;;;5.67;1.60;;;18.00;57.70;;;;;;1956236;73;21464;-78
2021/04/23 11:27:12;;;;;;;8.03;1.57;;;18.20;56.80;;;;;;1956126;73;21040;-78
2021/04/23 11:29:38;;;;;;;4.12;1.62;;;17.80;58.50;;;;;;1956124;73;21060;-78
2021/04/23 11:32:04;;;;;;;3.60;1.47;;;17.60;55.90;;;;;;1956286;73;21041;-79
2021/04/23 11:34:31;;;;;;;5.50;1.47;;;17.70;57.60;;;;;;1956270;73;21036;-77
2021/04/23 11:36:59;;;;;;;4.78;1.52;;;18.40;55.40;;;;;;1956212;73;21193;-79
2021/04/23 11:39:25;;;;;;;3.92;1.32;;;18.40;53.70;;;;;;1956099;72;21162;-79
2021/04/23 11:41:51;;;;;;;3.95;1.25;;;18.80;53.40;;;;;;1956212;73;21060;-79
2021/04/23 11:44:17;;;;;;;2.05;1.07;;;19.40;53.90;;;;;;1956217;73;21080;-80
2021/04/23 11:46:43;;;;;;;5.85;1.67;;;19.70;51.40;;;;;;1956029;73;21092;-79
2021/04/23 11:49:09;;;;;;;2.52;1.20;;;20.00;49.90;;;;;;1956279;73;21052;-79
2021/04/23 11:51:35;;;;;;;4.47;1.30;;;19.10;49.90;;;;;;1956050;73;21092;-79
2021/04/23 11:54:01;;;;;;;3.25;1.00;;;18.80;48.80;;;;;;1956280;73;21060;-79
2021/04/23 11:56:27;;;;;;;5.22;1.55;;;19.40;47.40;;;;;;1956012;73;21140;-78
2021/04/23 11:58:53;;;;;;;3.98;1.30;;;19.40;46.20;;;;;;1956250;73;21198;-79
2021/04/23 12:01:20;;;;;;;4.47;1.70;;;19.20;46.20;;;;;;1956189;73;21521;-79
2021/04/23 12:03:46;;;;;;;3.52;1.10;;;19.70;44.80;;;;;;1956253;73;21553;-81
2021/04/23 12:06:12;;;;;;;8.58;1.57;;;19.80;44.10;;;;;;1956191;73;21116;-80
2021/04/23 12:08:38;;;;;;;2.17;1.40;;;19.10;44.00;;;;;;1956218;73;21134;-78
2021/04/23 12:11:05;;;;;;;5.70;1.87;;;17.80;45.10;;;;;;1956188;73;21068;-78
2021/04/23 12:13:31;;;;;;;2.55;1.10;;;18.20;46.50;;;;;;1956273;73;21060;-79
2021/04/23 12:15:58;;;;;;;3.77;1.30;;;18.70;45.80;;;;;;1956283;73;21107;-79
2021/04/23 12:18:24;;;;;;;4.60;1.47;;;19.50;45.90;;;;;;1956269;73;21187;-78
2021/04/23 12:20:51;;;;;;;4.85;1.40;;;20.50;44.80;;;;;;1956128;73;21085;-79
2021/04/23 12:23:17;;;;;;;6.00;1.67;;;21.20;42.60;;;;;;1956170;73;21225;-80
2021/04/23 12:25:43;;;;;;;5.30;1.92;;;21.30;43.00;;;;;;1956213;73;21094;-79
2021/04/23 12:28:09;;;;;;;3.47;1.55;;;21.10;43.00;;;;;;1956184;73;21134;-79
2021/04/23 12:30:35;;;;;;;9.58;1.25;;;21.20;42.90;;;;;;1956190;73;21164;-80
2021/04/23 12:33:01;;;;;;;6.00;1.30;;;21.20;41.20;;;;;;1956127;73;21163;-79
2021/04/23 12:35:28;;;;;;;2.90;1.55;;;21.20;44.20;;;;;;1956167;73;21128;-79
2021/04/23 12:37:54;;;;;;;3.92;1.55;;;21.90;42.50;;;;;;1956114;73;21162;-79
2021/04/23 12:40:22;;;;;;;5.70;1.55;;;21.50;41.40;;;;;;1956164;73;21112;-79
2021/04/23 12:42:48;;;;;;;3.15;1.70;;;21.00;42.70;;;;;;1956086;73;21128;-80
2021/04/23 12:45:14;;;;;;;7.03;1.65;;;20.90;43.50;;;;;;1956387;73;21041;-79
2021/04/23 12:47:40;;;;;;;4.10;1.25;;;21.90;41.90;;;;;;1956216;73;21520;-79